sensor_id;sensor_type;location;lat;lon;timestamp;P1;durP1;ratioP1;P2;durP2;ratioP2
21769;SDS011;11046;49.558;8.674;2023-02-07T00:00:17;8.10;;;4.40;;
21769;SDS011;11046;49.558;8.674;2023-02-07T00:03:18;8.47;;;4.70;;
21769;SDS011;11046;49.558;8.674;2023-02-07T00:06:20;8.43;;;4.40;;
21769;SDS011;11046;49.558;8.674;2023-02-07T00:09:29;6.60;;;3.93;;
21769;SDS011;11046;49.558;8.674;2023-02-07T00:12:29;8.37;;;4.33;;
21769;SDS011;11046;49.558;8.674;2023-02-07T00:15:30;7.13;;;4.70;;
21769;SDS011;11046;49.558;8.674;2023-02-07T00:18:31;8.90;;;4.60;;
21769;SDS011;11046;49.558;8.674;2023-02-07T00:21:32;7.57;;;4.53;;
21769;SDS011;11046;49.558;8.674;2023-02-07T00:24:33;8.03;;;4.90;;
21769;SDS011;11046;49.558;8.674;2023-02-07T00:27:33;8.77;;;4.97;;
21769;SDS011;11046;49.558;8.674;2023-02-07T00:30:34;9.13;;;5.37;;
21769;SDS011;11046;49.558;8.674;2023-02-07T00:33:37;8.93;;;4.77;;
21769;SDS011;11046;49.558;8.674;2023-02-07T00:36:40;8.20;;;4.90;;
21769;SDS011;11046;49.558;8.674;2023-02-07T00:39:41;7.63;;;4.20;;
21769;SDS011;11046;49.558;8.674;2023-02-07T00:42:42;8.20;;;4.60;;
21769;SDS011;11046;49.558;8.674;2023-02-07T00:45:42;7.83;;;4.50;;
21769;SDS011;11046;49.558;8.674;2023-02-07T00:48:43;7.73;;;4.70;;
21769;SDS011;11046;49.558;8.674;2023-02-07T00:51:43;6.60;;;4.50;;
21769;SDS011;11046;49.558;8.674;2023-02-07T00:54:44;9.03;;;4.63;;
21769;SDS011;11046;49.558;8.674;2023-02-07T00:57:45;11.30;;;4.93;;
21769;SDS011;11046;49.558;8.674;2023-02-07T01:00:48;7.80;;;4.53;;
21769;SDS011;11046;49.558;8.674;2023-02-07T01:03:49;11.73;;;5.33;;
21769;SDS011;11046;49.558;8.674;2023-02-07T01:06:50;8.17;;;4.70;;
21769;SDS011;11046;49.558;8.674;2023-02-07T01:09:51;7.63;;;4.50;;
21769;SDS011;11046;49.558;8.674;2023-02-07T01:12:52;8.10;;;4.73;;
21769;SDS011;11046;49.558;8.674;2023-02-07T01:15:53;8.33;;;5.00;;
21769;SDS011;11046;49.558;8.674;2023-02-07T01:18:54;7.37;;;4.80;;
21769;SDS011;11046;49.558;8.674;2023-02-07T01:21:56;7.93;;;4.47;;
21769;SDS011;11046;49.558;8.674;2023-02-07T01:24:58;8.77;;;4.93;;
21769;SDS011;11046;49.558;8.674;2023-02-07T01:27:59;9.20;;;4.53;;
21769;SDS011;11046;49.558;8.674;2023-02-07T01:30:59;8.60;;;4.77;;
21769;SDS011;11046;49.558;8.674;2023-02-07T01:34:06;8.87;;;4.93;;
21769;SDS011;11046;49.558;8.674;2023-02-07T01:37:07;9.13;;;4.87;;
21769;SDS011;11046;49.558;8.674;2023-02-07T01:40:09;9.67;;;5.10;;
21769;SDS011;11046;49.558;8.674;2023-02-07T01:43:14;7.77;;;5.10;;
21769;SDS011;11046;49.558;8.674;2023-02-07T01:46:18;8.43;;;4.87;;
21769;SDS011;11046;49.558;8.674;2023-02-07T01:49:20;9.37;;;5.20;;
21769;SDS011;11046;49.558;8.674;2023-02-07T01:52:26;8.37;;;4.97;;
21769;SDS011;11046;49.558;8.674;2023-02-07T01:55:34;9.10;;;4.97;;
21769;SDS011;11046;49.558;8.674;2023-02-07T01:58:38;10.37;;;5.20;;
21769;SDS011;11046;49.558;8.674;2023-02-07T02:01:39;9.33;;;5.30;;
21769;SDS011;11046;49.558;8.674;2023-02-07T02:04:41;9.53;;;5.27;;
21769;SDS011;11046;49.558;8.674;2023-02-07T02:07:41;11.20;;;5.90;;
21769;SDS011;11046;49.558;8.674;2023-02-07T02:21:08;11.07;;;6.23;;
21769;SDS011;11046;49.558;8.674;2023-02-07T02:24:21;12.20;;;6.40;;
21769;SDS011;11046;49.558;8.674;2023-02-07T02:27:51;9.77;;;5.97;;
21769;SDS011;11046;49.558;8.674;2023-02-07T02:34:30;11.90;;;6.70;;
21769;SDS011;11046;49.558;8.674;2023-02-07T02:37:47;14.37;;;6.83;;
21769;SDS011;11046;49.558;8.674;2023-02-07T02:40:57;15.73;;;7.87;;
21769;SDS011;11046;49.558;8.674;2023-02-07T02:44:17;13.70;;;6.93;;
21769;SDS011;11046;49.558;8.674;2023-02-07T02:47:27;15.87;;;7.67;;
21769;SDS011;11046;49.558;8.674;2023-02-07T02:50:31;19.93;;;7.87;;
21769;SDS011;11046;49.558;8.674;2023-02-07T02:53:33;15.90;;;8.77;;
21769;SDS011;11046;49.558;8.674;2023-02-07T02:59:49;14.83;;;7.67;;
21769;SDS011;11046;49.558;8.674;2023-02-07T03:06:32;14.83;;;8.03;;
21769;SDS011;11046;49.558;8.674;2023-02-07T03:09:37;15.23;;;8.00;;
21769;SDS011;11046;49.558;8.674;2023-02-07T03:12:54;14.67;;;7.53;;
21769;SDS011;11046;49.558;8.674;2023-02-07T03:16:29;16.80;;;8.40;;
21769;SDS011;11046;49.558;8.674;2023-02-07T03:19:40;20.90;;;8.87;;
21769;SDS011;11046;49.558;8.674;2023-02-07T03:22:45;16.40;;;7.70;;
21769;SDS011;11046;49.558;8.674;2023-02-07T03:25:47;15.50;;;8.57;;
21769;SDS011;11046;49.558;8.674;2023-02-07T03:28:52;17.30;;;8.57;;
21769;SDS011;11046;49.558;8.674;2023-02-07T03:31:55;16.67;;;8.77;;
21769;SDS011;11046;49.558;8.674;2023-02-07T03:35:05;18.47;;;9.00;;
21769;SDS011;11046;49.558;8.674;2023-02-07T03:38:12;17.70;;;8.77;;
21769;SDS011;11046;49.558;8.674;2023-02-07T03:41:20;16.70;;;8.10;;
21769;SDS011;11046;49.558;8.674;2023-02-07T03:44:25;17.80;;;8.90;;
21769;SDS011;11046;49.558;8.674;2023-02-07T03:47:28;17.93;;;9.33;;
21769;SDS011;11046;49.558;8.674;2023-02-07T03:50:28;16.37;;;9.17;;
21769;SDS011;11046;49.558;8.674;2023-02-07T03:53:29;18.60;;;9.20;;
21769;SDS011;11046;49.558;8.674;2023-02-07T03:56:30;20.43;;;8.87;;
21769;SDS011;11046;49.558;8.674;2023-02-07T03:59:31;20.43;;;9.50;;
21769;SDS011;11046;49.558;8.674;2023-02-07T04:02:31;21.23;;;9.97;;
21769;SDS011;11046;49.558;8.674;2023-02-07T04:05:32;18.93;;;9.80;;
21769;SDS011;11046;49.558;8.674;2023-02-07T04:08:33;21.93;;;10.73;;
21769;SDS011;11046;49.558;8.674;2023-02-07T04:11:33;23.30;;;10.53;;
21769;SDS011;11046;49.558;8.674;2023-02-07T04:14:34;21.93;;;10.37;;
21769;SDS011;11046;49.558;8.674;2023-02-07T04:17:34;22.57;;;10.20;;
21769;SDS011;11046;49.558;8.674;2023-02-07T04:20:35;22.73;;;11.20;;
21769;SDS011;11046;49.558;8.674;2023-02-07T04:23:35;22.07;;;10.20;;
21769;SDS011;11046;49.558;8.674;2023-02-07T04:26:36;22.20;;;10.97;;
21769;SDS011;11046;49.558;8.674;2023-02-07T04:29:37;20.47;;;10.87;;
21769;SDS011;11046;49.558;8.674;2023-02-07T04:32:37;22.20;;;10.83;;
21769;SDS011;11046;49.558;8.674;2023-02-07T04:35:39;16.87;;;8.73;;
21769;SDS011;11046;49.558;8.674;2023-02-07T04:38:39;18.97;;;9.20;;
21769;SDS011;11046;49.558;8.674;2023-02-07T04:41:40;23.40;;;10.57;;
21769;SDS011;11046;49.558;8.674;2023-02-07T04:44:40;21.83;;;10.20;;
21769;SDS011;11046;49.558;8.674;2023-02-07T04:47:41;22.17;;;10.63;;
21769;SDS011;11046;49.558;8.674;2023-02-07T04:50:41;21.60;;;10.37;;
21769;SDS011;11046;49.558;8.674;2023-02-07T04:53:42;20.70;;;10.60;;
21769;SDS011;11046;49.558;8.674;2023-02-07T04:56:43;19.23;;;10.13;;
21769;SDS011;11046;49.558;8.674;2023-02-07T04:59:43;20.43;;;10.13;;
21769;SDS011;11046;49.558;8.674;2023-02-07T05:02:44;18.87;;;9.77;;
21769;SDS011;11046;49.558;8.674;2023-02-07T05:05:44;23.47;;;10.10;;
21769;SDS011;11046;49.558;8.674;2023-02-07T05:08:45;21.37;;;10.40;;
21769;SDS011;11046;49.558;8.674;2023-02-07T05:11:45;20.90;;;10.17;;
21769;SDS011;11046;49.558;8.674;2023-02-07T05:14:46;20.37;;;10.57;;
21769;SDS011;11046;49.558;8.674;2023-02-07T05:17:47;21.57;;;10.97;;
21769;SDS011;11046;49.558;8.674;2023-02-07T05:20:48;22.47;;;10.53;;
21769;SDS011;11046;49.558;8.674;2023-02-07T05:23:49;19.23;;;10.40;;
21769;SDS011;11046;49.558;8.674;2023-02-07T05:26:49;22.00;;;10.37;;
21769;SDS011;11046;49.558;8.674;2023-02-07T05:29:50;20.83;;;10.03;;
21769;SDS011;11046;49.558;8.674;2023-02-07T05:32:50;19.63;;;9.70;;
21769;SDS011;11046;49.558;8.674;2023-02-07T05:36:03;23.47;;;10.17;;
21769;SDS011;11046;49.558;8.674;2023-02-07T05:39:04;20.80;;;10.13;;
21769;SDS011;11046;49.558;8.674;2023-02-07T05:42:04;20.87;;;10.50;;
21769;SDS011;11046;49.558;8.674;2023-02-07T05:45:08;23.60;;;10.70;;
21769;SDS011;11046;49.558;8.674;2023-02-07T05:48:09;24.07;;;9.90;;
21769;SDS011;11046;49.558;8.674;2023-02-07T05:51:11;23.53;;;9.83;;
21769;SDS011;11046;49.558;8.674;2023-02-07T05:54:11;22.27;;;10.77;;
21769;SDS011;11046;49.558;8.674;2023-02-07T05:57:12;22.27;;;10.47;;
21769;SDS011;11046;49.558;8.674;2023-02-07T06:00:13;21.33;;;10.90;;
21769;SDS011;11046;49.558;8.674;2023-02-07T06:03:16;23.53;;;10.90;;
21769;SDS011;11046;49.558;8.674;2023-02-07T06:06:16;27.80;;;11.00;;
21769;SDS011;11046;49.558;8.674;2023-02-07T06:09:17;22.50;;;11.07;;
21769;SDS011;11046;49.558;8.674;2023-02-07T06:12:18;23.63;;;11.43;;
21769;SDS011;11046;49.558;8.674;2023-02-07T06:15:19;25.57;;;11.07;;
21769;SDS011;11046;49.558;8.674;2023-02-07T06:18:19;26.00;;;11.43;;
21769;SDS011;11046;49.558;8.674;2023-02-07T06:21:20;29.43;;;11.30;;
21769;SDS011;11046;49.558;8.674;2023-02-07T06:24:20;41.03;;;15.50;;
21769;SDS011;11046;49.558;8.674;2023-02-07T06:27:21;39.73;;;16.20;;
21769;SDS011;11046;49.558;8.674;2023-02-07T06:30:22;31.47;;;15.57;;
21769;SDS011;11046;49.558;8.674;2023-02-07T06:33:22;32.83;;;14.73;;
21769;SDS011;11046;49.558;8.674;2023-02-07T06:36:23;30.03;;;13.73;;
21769;SDS011;11046;49.558;8.674;2023-02-07T06:39:24;30.27;;;15.67;;
21769;SDS011;11046;49.558;8.674;2023-02-07T06:42:24;29.43;;;13.47;;
21769;SDS011;11046;49.558;8.674;2023-02-07T06:45:25;27.57;;;13.63;;
21769;SDS011;11046;49.558;8.674;2023-02-07T06:48:25;30.67;;;13.37;;
21769;SDS011;11046;49.558;8.674;2023-02-07T06:51:26;26.53;;;12.23;;
21769;SDS011;11046;49.558;8.674;2023-02-07T06:54:27;25.50;;;12.07;;
21769;SDS011;11046;49.558;8.674;2023-02-07T06:57:27;24.50;;;12.13;;
21769;SDS011;11046;49.558;8.674;2023-02-07T07:00:28;31.20;;;13.73;;
21769;SDS011;11046;49.558;8.674;2023-02-07T07:03:29;24.93;;;12.50;;
21769;SDS011;11046;49.558;8.674;2023-02-07T07:10:02;29.87;;;13.70;;
21769;SDS011;11046;49.558;8.674;2023-02-07T07:13:02;31.23;;;14.63;;
21769;SDS011;11046;49.558;8.674;2023-02-07T07:16:03;31.47;;;14.67;;
21769;SDS011;11046;49.558;8.674;2023-02-07T07:19:04;31.10;;;14.97;;
21769;SDS011;11046;49.558;8.674;2023-02-07T07:22:05;30.30;;;14.63;;
21769;SDS011;11046;49.558;8.674;2023-02-07T07:25:05;34.07;;;15.77;;
21769;SDS011;11046;49.558;8.674;2023-02-07T07:28:06;31.30;;;14.43;;
21769;SDS011;11046;49.558;8.674;2023-02-07T07:31:07;57.77;;;28.37;;
21769;SDS011;11046;49.558;8.674;2023-02-07T07:34:08;36.73;;;16.07;;
21769;SDS011;11046;49.558;8.674;2023-02-07T07:37:10;32.93;;;16.33;;
21769;SDS011;11046;49.558;8.674;2023-02-07T07:40:11;32.63;;;15.17;;
21769;SDS011;11046;49.558;8.674;2023-02-07T07:43:11;30.07;;;14.33;;
21769;SDS011;11046;49.558;8.674;2023-02-07T07:46:19;31.70;;;14.40;;
21769;SDS011;11046;49.558;8.674;2023-02-07T07:49:19;32.63;;;14.07;;
21769;SDS011;11046;49.558;8.674;2023-02-07T07:52:20;28.93;;;14.87;;
21769;SDS011;11046;49.558;8.674;2023-02-07T07:55:21;30.77;;;14.17;;
21769;SDS011;11046;49.558;8.674;2023-02-07T07:58:22;30.23;;;13.90;;
21769;SDS011;11046;49.558;8.674;2023-02-07T08:01:24;35.50;;;15.33;;
21769;SDS011;11046;49.558;8.674;2023-02-07T08:04:24;30.63;;;13.67;;
21769;SDS011;11046;49.558;8.674;2023-02-07T08:07:25;31.40;;;14.10;;
21769;SDS011;11046;49.558;8.674;2023-02-07T08:10:26;31.80;;;13.43;;
21769;SDS011;11046;49.558;8.674;2023-02-07T08:13:26;26.00;;;12.27;;
21769;SDS011;11046;49.558;8.674;2023-02-07T08:16:27;29.40;;;12.73;;
21769;SDS011;11046;49.558;8.674;2023-02-07T08:19:27;27.60;;;13.83;;
21769;SDS011;11046;49.558;8.674;2023-02-07T08:22:28;26.83;;;12.07;;
21769;SDS011;11046;49.558;8.674;2023-02-07T08:25:28;24.30;;;11.87;;
21769;SDS011;11046;49.558;8.674;2023-02-07T08:28:29;25.23;;;12.13;;
21769;SDS011;11046;49.558;8.674;2023-02-07T08:31:30;21.87;;;11.47;;
21769;SDS011;11046;49.558;8.674;2023-02-07T08:34:31;24.83;;;12.33;;
21769;SDS011;11046;49.558;8.674;2023-02-07T08:37:36;22.03;;;11.27;;
21769;SDS011;11046;49.558;8.674;2023-02-07T08:40:37;23.73;;;11.73;;
21769;SDS011;11046;49.558;8.674;2023-02-07T08:43:38;23.40;;;11.43;;
21769;SDS011;11046;49.558;8.674;2023-02-07T08:46:40;22.33;;;11.77;;
21769;SDS011;11046;49.558;8.674;2023-02-07T08:49:41;21.37;;;11.33;;
21769;SDS011;11046;49.558;8.674;2023-02-07T08:52:43;22.43;;;11.30;;
21769;SDS011;11046;49.558;8.674;2023-02-07T08:55:44;24.07;;;11.73;;
21769;SDS011;11046;49.558;8.674;2023-02-07T08:58:45;25.50;;;11.77;;
21769;SDS011;11046;49.558;8.674;2023-02-07T09:01:45;26.60;;;12.60;;
21769;SDS011;11046;49.558;8.674;2023-02-07T09:04:46;20.73;;;11.57;;
21769;SDS011;11046;49.558;8.674;2023-02-07T09:07:47;24.47;;;12.33;;
21769;SDS011;11046;49.558;8.674;2023-02-07T09:10:47;23.00;;;11.63;;
21769;SDS011;11046;49.558;8.674;2023-02-07T09:13:48;22.03;;;11.83;;
21769;SDS011;11046;49.558;8.674;2023-02-07T09:16:49;21.53;;;11.77;;
21769;SDS011;11046;49.558;8.674;2023-02-07T09:19:49;22.77;;;11.57;;
21769;SDS011;11046;49.558;8.674;2023-02-07T09:22:50;22.37;;;11.40;;
21769;SDS011;11046;49.558;8.674;2023-02-07T09:26:10;25.37;;;11.30;;
21769;SDS011;11046;49.558;8.674;2023-02-07T09:29:18;21.47;;;11.10;;
21769;SDS011;11046;49.558;8.674;2023-02-07T09:32:19;21.50;;;11.10;;
21769;SDS011;11046;49.558;8.674;2023-02-07T09:35:20;22.13;;;11.00;;
21769;SDS011;11046;49.558;8.674;2023-02-07T09:38:21;23.80;;;11.33;;
21769;SDS011;11046;49.558;8.674;2023-02-07T09:44:46;18.60;;;10.03;;
21769;SDS011;11046;49.558;8.674;2023-02-07T09:48:05;20.37;;;10.83;;
21769;SDS011;11046;49.558;8.674;2023-02-07T09:51:14;19.70;;;10.47;;
21769;SDS011;11046;49.558;8.674;2023-02-07T09:54:38;19.30;;;10.43;;
21769;SDS011;11046;49.558;8.674;2023-02-07T09:57:44;17.67;;;10.37;;
21769;SDS011;11046;49.558;8.674;2023-02-07T10:00:51;20.97;;;10.23;;
21769;SDS011;11046;49.558;8.674;2023-02-07T10:07:15;19.43;;;9.93;;
21769;SDS011;11046;49.558;8.674;2023-02-07T10:10:17;16.47;;;9.90;;
21769;SDS011;11046;49.558;8.674;2023-02-07T10:13:29;20.63;;;11.30;;
21769;SDS011;11046;49.558;8.674;2023-02-07T10:20:28;22.37;;;11.23;;
21769;SDS011;11046;49.558;8.674;2023-02-07T10:26:47;17.67;;;9.77;;
21769;SDS011;11046;49.558;8.674;2023-02-07T10:30:04;17.73;;;9.83;;
21769;SDS011;11046;49.558;8.674;2023-02-07T10:36:19;16.73;;;9.07;;
21769;SDS011;11046;49.558;8.674;2023-02-07T10:42:30;17.07;;;10.17;;
21769;SDS011;11046;49.558;8.674;2023-02-07T10:45:33;15.90;;;8.70;;
21769;SDS011;11046;49.558;8.674;2023-02-07T10:48:34;17.97;;;8.43;;
21769;SDS011;11046;49.558;8.674;2023-02-07T10:51:40;17.13;;;8.77;;
21769;SDS011;11046;49.558;8.674;2023-02-07T10:54:51;14.77;;;8.37;;
21769;SDS011;11046;49.558;8.674;2023-02-07T10:57:58;16.80;;;9.30;;
21769;SDS011;11046;49.558;8.674;2023-02-07T11:00:59;17.37;;;8.13;;
21769;SDS011;11046;49.558;8.674;2023-02-07T11:04:00;14.13;;;8.20;;
21769;SDS011;11046;49.558;8.674;2023-02-07T11:07:01;14.93;;;8.67;;
21769;SDS011;11046;49.558;8.674;2023-02-07T11:10:15;14.97;;;8.13;;
21769;SDS011;11046;49.558;8.674;2023-02-07T11:13:19;15.77;;;8.63;;
21769;SDS011;11046;49.558;8.674;2023-02-07T11:16:23;13.67;;;8.53;;
21769;SDS011;11046;49.558;8.674;2023-02-07T11:19:24;15.57;;;8.57;;
21769;SDS011;11046;49.558;8.674;2023-02-07T11:22:27;12.77;;;7.80;;
21769;SDS011;11046;49.558;8.674;2023-02-07T11:25:29;16.67;;;8.10;;
21769;SDS011;11046;49.558;8.674;2023-02-07T11:28:31;14.07;;;7.80;;
21769;SDS011;11046;49.558;8.674;2023-02-07T11:31:33;17.40;;;8.77;;
21769;SDS011;11046;49.558;8.674;2023-02-07T11:38:04;18.67;;;7.57;;
21769;SDS011;11046;49.558;8.674;2023-02-07T11:41:23;13.50;;;8.07;;
21769;SDS011;11046;49.558;8.674;2023-02-07T11:44:29;12.33;;;7.40;;
21769;SDS011;11046;49.558;8.674;2023-02-07T11:47:30;18.33;;;7.70;;
21769;SDS011;11046;49.558;8.674;2023-02-07T11:50:37;12.40;;;7.57;;
21769;SDS011;11046;49.558;8.674;2023-02-07T11:53:53;13.30;;;6.93;;
21769;SDS011;11046;49.558;8.674;2023-02-07T11:57:04;12.67;;;7.53;;
21769;SDS011;11046;49.558;8.674;2023-02-07T12:00:21;13.03;;;7.50;;
21769;SDS011;11046;49.558;8.674;2023-02-07T12:03:25;12.20;;;7.10;;
21769;SDS011;11046;49.558;8.674;2023-02-07T12:06:36;14.07;;;7.70;;
21769;SDS011;11046;49.558;8.674;2023-02-07T12:09:53;13.27;;;7.67;;
21769;SDS011;11046;49.558;8.674;2023-02-07T12:12:58;14.97;;;7.47;;
21769;SDS011;11046;49.558;8.674;2023-02-07T12:16:10;14.50;;;6.90;;
21769;SDS011;11046;49.558;8.674;2023-02-07T12:19:28;14.30;;;7.03;;
21769;SDS011;11046;49.558;8.674;2023-02-07T12:22:38;13.80;;;6.50;;
21769;SDS011;11046;49.558;8.674;2023-02-07T12:25:47;14.67;;;7.20;;
21769;SDS011;11046;49.558;8.674;2023-02-07T12:32:13;14.97;;;7.50;;
21769;SDS011;11046;49.558;8.674;2023-02-07T12:35:27;14.13;;;6.87;;
21769;SDS011;11046;49.558;8.674;2023-02-07T12:42:33;12.57;;;7.33;;
21769;SDS011;11046;49.558;8.674;2023-02-07T12:45:56;11.10;;;6.30;;
21769;SDS011;11046;49.558;8.674;2023-02-07T12:49:30;13.73;;;6.67;;
21769;SDS011;11046;49.558;8.674;2023-02-07T12:56:13;11.97;;;6.93;;
21769;SDS011;11046;49.558;8.674;2023-02-07T13:19:41;15.97;;;8.87;;
21769;SDS011;11046;49.558;8.674;2023-02-07T13:26:03;15.40;;;8.40;;
21769;SDS011;11046;49.558;8.674;2023-02-07T13:29:13;15.07;;;8.10;;
21769;SDS011;11046;49.558;8.674;2023-02-07T13:32:20;18.03;;;8.77;;
21769;SDS011;11046;49.558;8.674;2023-02-07T13:35:27;15.23;;;7.83;;
21769;SDS011;11046;49.558;8.674;2023-02-07T13:38:45;16.10;;;9.40;;
21769;SDS011;11046;49.558;8.674;2023-02-07T14:01:51;13.73;;;8.40;;
21769;SDS011;11046;49.558;8.674;2023-02-07T14:04:56;14.80;;;8.10;;
21769;SDS011;11046;49.558;8.674;2023-02-07T14:08:20;13.67;;;8.03;;
21769;SDS011;11046;49.558;8.674;2023-02-07T14:11:34;14.57;;;8.57;;
21769;SDS011;11046;49.558;8.674;2023-02-07T14:14:44;15.73;;;8.00;;
21769;SDS011;11046;49.558;8.674;2023-02-07T14:17:55;17.07;;;8.33;;
21769;SDS011;11046;49.558;8.674;2023-02-07T14:21:03;17.20;;;9.20;;
21769;SDS011;11046;49.558;8.674;2023-02-07T14:27:31;22.23;;;9.57;;
21769;SDS011;11046;49.558;8.674;2023-02-07T14:34:08;18.50;;;9.50;;
21769;SDS011;11046;49.558;8.674;2023-02-07T14:37:20;15.30;;;7.67;;
21769;SDS011;11046;49.558;8.674;2023-02-07T14:43:53;17.10;;;8.97;;
21769;SDS011;11046;49.558;8.674;2023-02-07T14:46:55;18.83;;;9.13;;
21769;SDS011;11046;49.558;8.674;2023-02-07T14:49:58;15.70;;;9.10;;
21769;SDS011;11046;49.558;8.674;2023-02-07T14:53:00;17.40;;;10.27;;
21769;SDS011;11046;49.558;8.674;2023-02-07T14:56:09;18.30;;;9.33;;
21769;SDS011;11046;49.558;8.674;2023-02-07T14:59:43;17.43;;;8.87;;
21769;SDS011;11046;49.558;8.674;2023-02-07T15:03:00;19.10;;;8.43;;
21769;SDS011;11046;49.558;8.674;2023-02-07T15:06:15;12.90;;;6.73;;
21769;SDS011;11046;49.558;8.674;2023-02-07T15:09:20;12.60;;;6.83;;
21769;SDS011;11046;49.558;8.674;2023-02-07T15:12:25;9.53;;;5.17;;
21769;SDS011;11046;49.558;8.674;2023-02-07T15:15:30;10.60;;;5.40;;
21769;SDS011;11046;49.558;8.674;2023-02-07T15:22:39;11.43;;;5.83;;
21769;SDS011;11046;49.558;8.674;2023-02-07T15:25:42;10.53;;;5.47;;
21769;SDS011;11046;49.558;8.674;2023-02-07T15:28:44;12.70;;;5.20;;
21769;SDS011;11046;49.558;8.674;2023-02-07T15:31:45;11.00;;;5.80;;
21769;SDS011;11046;49.558;8.674;2023-02-07T15:34:49;14.00;;;6.93;;
21769;SDS011;11046;49.558;8.674;2023-02-07T15:38:11;9.80;;;5.43;;
21769;SDS011;11046;49.558;8.674;2023-02-07T15:41:20;13.50;;;5.67;;
21769;SDS011;11046;49.558;8.674;2023-02-07T15:44:22;13.03;;;5.53;;
21769;SDS011;11046;49.558;8.674;2023-02-07T15:50:31;12.07;;;5.87;;
21769;SDS011;11046;49.558;8.674;2023-02-07T15:53:33;10.63;;;5.90;;
21769;SDS011;11046;49.558;8.674;2023-02-07T15:56:35;12.80;;;6.40;;
21769;SDS011;11046;49.558;8.674;2023-02-07T15:59:36;11.00;;;6.50;;
21769;SDS011;11046;49.558;8.674;2023-02-07T16:02:42;14.63;;;6.93;;
21769;SDS011;11046;49.558;8.674;2023-02-07T16:05:59;11.40;;;6.87;;
21769;SDS011;11046;49.558;8.674;2023-02-07T16:09:34;17.50;;;7.77;;
21769;SDS011;11046;49.558;8.674;2023-02-07T16:12:42;19.07;;;8.77;;
21769;SDS011;11046;49.558;8.674;2023-02-07T16:15:59;19.13;;;8.73;;
21769;SDS011;11046;49.558;8.674;2023-02-07T16:19:17;11.97;;;6.40;;
21769;SDS011;11046;49.558;8.674;2023-02-07T16:22:25;14.10;;;6.63;;
21769;SDS011;11046;49.558;8.674;2023-02-07T16:25:34;12.30;;;6.53;;
21769;SDS011;11046;49.558;8.674;2023-02-07T16:28:36;12.40;;;6.70;;
21769;SDS011;11046;49.558;8.674;2023-02-07T16:31:38;17.50;;;7.33;;
21769;SDS011;11046;49.558;8.674;2023-02-07T16:34:43;14.97;;;7.03;;
21769;SDS011;11046;49.558;8.674;2023-02-07T16:37:44;15.20;;;8.60;;
21769;SDS011;11046;49.558;8.674;2023-02-07T16:40:47;22.83;;;8.10;;
21769;SDS011;11046;49.558;8.674;2023-02-07T16:43:49;18.93;;;8.70;;
21769;SDS011;11046;49.558;8.674;2023-02-07T16:46:50;15.67;;;8.67;;
21769;SDS011;11046;49.558;8.674;2023-02-07T16:49:54;16.43;;;8.50;;
21769;SDS011;11046;49.558;8.674;2023-02-07T16:52:58;22.37;;;9.40;;
21769;SDS011;11046;49.558;8.674;2023-02-07T16:56:01;25.23;;;10.93;;
21769;SDS011;11046;49.558;8.674;2023-02-07T16:59:05;18.90;;;10.40;;
21769;SDS011;11046;49.558;8.674;2023-02-07T17:02:12;23.07;;;11.63;;
21769;SDS011;11046;49.558;8.674;2023-02-07T17:05:19;23.80;;;11.50;;
21769;SDS011;11046;49.558;8.674;2023-02-07T17:08:22;21.17;;;10.00;;
21769;SDS011;11046;49.558;8.674;2023-02-07T17:11:29;41.60;;;18.80;;
21769;SDS011;11046;49.558;8.674;2023-02-07T17:14:30;42.67;;;20.20;;
21769;SDS011;11046;49.558;8.674;2023-02-07T17:17:32;32.30;;;15.67;;
21769;SDS011;11046;49.558;8.674;2023-02-07T17:20:33;32.53;;;17.07;;
21769;SDS011;11046;49.558;8.674;2023-02-07T17:23:35;33.57;;;15.20;;
21769;SDS011;11046;49.558;8.674;2023-02-07T17:26:37;37.23;;;16.97;;
21769;SDS011;11046;49.558;8.674;2023-02-07T17:29:43;42.77;;;19.40;;
21769;SDS011;11046;49.558;8.674;2023-02-07T17:32:44;30.80;;;14.97;;
21769;SDS011;11046;49.558;8.674;2023-02-07T17:35:47;33.97;;;14.50;;
21769;SDS011;11046;49.558;8.674;2023-02-07T17:38:49;36.37;;;16.23;;
21769;SDS011;11046;49.558;8.674;2023-02-07T17:41:50;36.43;;;16.57;;
21769;SDS011;11046;49.558;8.674;2023-02-07T17:44:52;27.00;;;12.17;;
21769;SDS011;11046;49.558;8.674;2023-02-07T17:47:54;36.77;;;16.03;;
21769;SDS011;11046;49.558;8.674;2023-02-07T17:51:01;30.33;;;14.13;;
21769;SDS011;11046;49.558;8.674;2023-02-07T17:54:03;28.03;;;12.77;;
21769;SDS011;11046;49.558;8.674;2023-02-07T17:57:04;33.70;;;15.07;;
21769;SDS011;11046;49.558;8.674;2023-02-07T18:00:05;35.03;;;16.63;;
21769;SDS011;11046;49.558;8.674;2023-02-07T18:03:12;48.90;;;20.87;;
21769;SDS011;11046;49.558;8.674;2023-02-07T18:06:16;43.60;;;20.63;;
21769;SDS011;11046;49.558;8.674;2023-02-07T18:09:19;61.20;;;25.03;;
21769;SDS011;11046;49.558;8.674;2023-02-07T18:12:21;44.23;;;20.47;;
21769;SDS011;11046;49.558;8.674;2023-02-07T18:15:22;44.53;;;22.23;;
21769;SDS011;11046;49.558;8.674;2023-02-07T18:18:23;41.57;;;19.77;;
21769;SDS011;11046;49.558;8.674;2023-02-07T18:21:27;45.80;;;18.00;;
21769;SDS011;11046;49.558;8.674;2023-02-07T18:24:30;38.03;;;17.77;;
21769;SDS011;11046;49.558;8.674;2023-02-07T18:27:34;44.00;;;18.97;;
21769;SDS011;11046;49.558;8.674;2023-02-07T18:30:38;29.50;;;13.83;;
21769;SDS011;11046;49.558;8.674;2023-02-07T18:33:41;32.37;;;15.03;;
21769;SDS011;11046;49.558;8.674;2023-02-07T18:36:43;30.13;;;15.43;;
21769;SDS011;11046;49.558;8.674;2023-02-07T18:39:44;33.30;;;16.30;;
21769;SDS011;11046;49.558;8.674;2023-02-07T18:42:47;29.67;;;13.83;;
21769;SDS011;11046;49.558;8.674;2023-02-07T18:45:48;29.23;;;13.47;;
21769;SDS011;11046;49.558;8.674;2023-02-07T18:48:53;37.93;;;15.50;;
21769;SDS011;11046;49.558;8.674;2023-02-07T18:51:58;40.67;;;18.20;;
21769;SDS011;11046;49.558;8.674;2023-02-07T18:55:00;30.93;;;15.10;;
21769;SDS011;11046;49.558;8.674;2023-02-07T18:58:01;32.03;;;15.10;;
21769;SDS011;11046;49.558;8.674;2023-02-07T19:01:09;32.53;;;15.73;;
21769;SDS011;11046;49.558;8.674;2023-02-07T19:04:19;31.90;;;16.20;;
21769;SDS011;11046;49.558;8.674;2023-02-07T19:07:21;32.43;;;16.13;;
21769;SDS011;11046;49.558;8.674;2023-02-07T19:10:22;32.07;;;15.60;;
21769;SDS011;11046;49.558;8.674;2023-02-07T19:13:23;39.00;;;14.43;;
21769;SDS011;11046;49.558;8.674;2023-02-07T19:16:25;31.87;;;16.10;;
21769;SDS011;11046;49.558;8.674;2023-02-07T19:19:28;31.10;;;15.23;;
21769;SDS011;11046;49.558;8.674;2023-02-07T19:22:30;38.57;;;17.67;;
21769;SDS011;11046;49.558;8.674;2023-02-07T19:25:33;35.40;;;18.30;;
21769;SDS011;11046;49.558;8.674;2023-02-07T19:28:37;37.00;;;16.97;;
21769;SDS011;11046;49.558;8.674;2023-02-07T19:31:40;33.07;;;16.83;;
21769;SDS011;11046;49.558;8.674;2023-02-07T19:34:45;35.20;;;16.33;;
21769;SDS011;11046;49.558;8.674;2023-02-07T19:37:46;34.93;;;16.93;;
21769;SDS011;11046;49.558;8.674;2023-02-07T19:40:54;33.60;;;16.40;;
21769;SDS011;11046;49.558;8.674;2023-02-07T19:43:57;39.77;;;17.60;;
21769;SDS011;11046;49.558;8.674;2023-02-07T19:47:00;34.37;;;17.50;;
21769;SDS011;11046;49.558;8.674;2023-02-07T19:50:05;34.27;;;17.13;;
21769;SDS011;11046;49.558;8.674;2023-02-07T19:53:07;38.20;;;17.60;;
21769;SDS011;11046;49.558;8.674;2023-02-07T19:56:10;39.33;;;17.60;;
21769;SDS011;11046;49.558;8.674;2023-02-07T19:59:13;35.20;;;16.63;;
21769;SDS011;11046;49.558;8.674;2023-02-07T20:02:22;32.93;;;15.63;;
21769;SDS011;11046;49.558;8.674;2023-02-07T20:05:25;35.80;;;15.57;;